sensor_id;sensor_type;location;lat;lon;timestamp;pressure;altitude;pressure_sealevel;temperature
71807;BMP280;59655;42.590;23.364;2023-03-14T00:01:51;91607.13;;;2.70
71807;BMP280;59655;42.590;23.364;2023-03-14T00:04:17;91613.31;;;2.67
71807;BMP280;59655;42.590;23.364;2023-03-14T00:06:42;91587.13;;;2.67
71807;BMP280;59655;42.590;23.364;2023-03-14T00:09:08;91586.66;;;2.69
71807;BMP280;59655;42.590;23.364;2023-03-14T00:11:33;91588.78;;;2.70
71807;BMP280;59655;42.590;23.364;2023-03-14T00:13:59;91573.34;;;2.61
71807;BMP280;59655;42.590;23.364;2023-03-14T00:16:26;91570.47;;;2.70
71807;BMP280;59655;42.590;23.364;2023-03-14T00:18:52;91565.03;;;2.63
71807;BMP280;59655;42.590;23.364;2023-03-14T00:21:19;91560.47;;;2.69
71807;BMP280;59655;42.590;23.364;2023-03-14T00:23:44;91561.19;;;2.75
71807;BMP280;59655;42.590;23.364;2023-03-14T00:26:15;91560.00;;;2.76
71807;BMP280;59655;42.590;23.364;2023-03-14T00:28:42;91551.91;;;2.74
71807;BMP280;59655;42.590;23.364;2023-03-14T00:31:09;91543.59;;;2.64
71807;BMP280;59655;42.590;23.364;2023-03-14T00:33:35;91536.19;;;2.34
71807;BMP280;59655;42.590;23.364;2023-03-14T00:36:03;91538.50;;;1.82
71807;BMP280;59655;42.590;23.364;2023-03-14T00:38:31;91528.28;;;1.89
71807;BMP280;59655;42.590;23.364;2023-03-14T00:40:56;91521.91;;;2.07
71807;BMP280;59655;42.590;23.364;2023-03-14T00:43:22;91524.78;;;2.21
71807;BMP280;59655;42.590;23.364;2023-03-14T00:45:49;91522.19;;;2.32
71807;BMP280;59655;42.590;23.364;2023-03-14T00:48:14;91523.34;;;2.25
71807;BMP280;59655;42.590;23.364;2023-03-14T00:50:40;91520.75;;;2.48
71807;BMP280;59655;42.590;23.364;2023-03-14T00:53:05;91517.88;;;2.34
71807;BMP280;59655;42.590;23.364;2023-03-14T00:55:31;91520.50;;;2.40
71807;BMP280;59655;42.590;23.364;2023-03-14T00:57:56;91520.72;;;2.42
71807;BMP280;59655;42.590;23.364;2023-03-14T01:00:22;91525.00;;;2.45
71807;BMP280;59655;42.590;23.364;2023-03-14T01:02:47;91520.97;;;2.50
71807;BMP280;59655;42.590;23.364;2023-03-14T01:05:13;91518.59;;;2.24
71807;BMP280;59655;42.590;23.364;2023-03-14T01:07:38;91516.94;;;2.21
71807;BMP280;59655;42.590;23.364;2023-03-14T01:10:05;91520.25;;;2.32
71807;BMP280;59655;42.590;23.364;2023-03-14T01:12:31;91513.59;;;2.31
71807;BMP280;59655;42.590;23.364;2023-03-14T01:14:56;91505.50;;;2.29
71807;BMP280;59655;42.590;23.364;2023-03-14T01:17:22;91510.97;;;2.31
71807;BMP280;59655;42.590;23.364;2023-03-14T01:19:47;91501.72;;;2.30
71807;BMP280;59655;42.590;23.364;2023-03-14T01:22:13;91502.16;;;2.12
71807;BMP280;59655;42.590;23.364;2023-03-14T01:24:38;91492.91;;;2.16
71807;BMP280;59655;42.590;23.364;2023-03-14T01:27:04;91493.13;;;2.18
71807;BMP280;59655;42.590;23.364;2023-03-14T01:29:29;91486.47;;;2.29
71807;BMP280;59655;42.590;23.364;2023-03-14T01:31:54;91485.78;;;2.28
71807;BMP280;59655;42.590;23.364;2023-03-14T01:34:20;91476.47;;;2.38
71807;BMP280;59655;42.590;23.364;2023-03-14T01:36:45;91485.75;;;2.39
71807;BMP280;59655;42.590;23.364;2023-03-14T01:39:11;91479.09;;;2.44
71807;BMP280;59655;42.590;23.364;2023-03-14T01:41:39;91479.78;;;2.39
71807;BMP280;59655;42.590;23.364;2023-03-14T01:44:05;91467.69;;;2.25
71807;BMP280;59655;42.590;23.364;2023-03-14T01:46:35;91467.91;;;2.32
71807;BMP280;59655;42.590;23.364;2023-03-14T01:54:09;91456.97;;;2.17
71807;BMP280;59655;42.590;23.364;2023-03-14T01:56:35;91466.25;;;2.24
71807;BMP280;59655;42.590;23.364;2023-03-14T01:59:04;91470.78;;;2.23
71807;BMP280;59655;42.590;23.364;2023-03-14T02:01:31;91472.19;;;2.07
71807;BMP280;59655;42.590;23.364;2023-03-14T02:04:00;91461.25;;;2.26
71807;BMP280;59655;42.590;23.364;2023-03-14T02:06:31;91465.75;;;2.08
71807;BMP280;59655;42.590;23.364;2023-03-14T02:09:00;91468.88;;;2.07
71807;BMP280;59655;42.590;23.364;2023-03-14T02:11:28;91469.59;;;2.18
71807;BMP280;59655;42.590;23.364;2023-03-14T02:13:53;91468.59;;;2.05
71807;BMP280;59655;42.590;23.364;2023-03-14T02:16:19;91477.41;;;1.96
71807;BMP280;59655;42.590;23.364;2023-03-14T02:18:45;91472.19;;;2.07
71807;BMP280;59655;42.590;23.364;2023-03-14T02:21:23;91467.66;;;2.13
71807;BMP280;59655;42.590;23.364;2023-03-14T02:27:14;91460.28;;;2.01
71807;BMP280;59655;42.590;23.364;2023-03-14T02:29:55;91455.78;;;2.07
71807;BMP280;59655;42.590;23.364;2023-03-14T02:32:23;91451.50;;;2.09
71807;BMP280;59655;42.590;23.364;2023-03-14T02:34:58;91456.72;;;2.09
71807;BMP280;59655;42.590;23.364;2023-03-14T02:37:25;91453.66;;;2.16
71807;BMP280;59655;42.590;23.364;2023-03-14T02:39:52;91454.59;;;2.13
71807;BMP280;59655;42.590;23.364;2023-03-14T02:42:17;91446.50;;;2.06
71807;BMP280;59655;42.590;23.364;2023-03-14T02:44:57;91453.66;;;2.11
71807;BMP280;59655;42.590;23.364;2023-03-14T02:47:29;91456.47;;;2.02
71807;BMP280;59655;42.590;23.364;2023-03-14T02:50:09;91449.09;;;1.83
71807;BMP280;59655;42.590;23.364;2023-03-14T02:52:35;91447.13;;;1.55
71807;BMP280;59655;42.590;23.364;2023-03-14T02:55:01;91451.94;;;1.74
71807;BMP280;59655;42.590;23.364;2023-03-14T02:57:26;91456.22;;;1.83
71807;BMP280;59655;42.590;23.364;2023-03-14T02:59:51;91457.66;;;1.78
71807;BMP280;59655;42.590;23.364;2023-03-14T03:02:17;91455.06;;;1.84
71807;BMP280;59655;42.590;23.364;2023-03-14T03:04:42;91465.50;;;1.89
71807;BMP280;59655;42.590;23.364;2023-03-14T03:07:08;91465.94;;;1.71
71807;BMP280;59655;42.590;23.364;2023-03-14T03:09:33;91477.06;;;1.49
71807;BMP280;59655;42.590;23.364;2023-03-14T03:11:59;91475.56;;;1.36
71807;BMP280;59655;42.590;23.364;2023-03-14T03:14:24;91465.22;;;1.59
71807;BMP280;59655;42.590;23.364;2023-03-14T03:16:50;91457.63;;;1.67
71807;BMP280;59655;42.590;23.364;2023-03-14T03:19:15;91460.25;;;1.72
71807;BMP280;59655;42.590;23.364;2023-03-14T03:21:43;91455.75;;;1.84
71807;BMP280;59655;42.590;23.364;2023-03-14T03:24:08;91450.53;;;1.95
71807;BMP280;59655;42.590;23.364;2023-03-14T03:26:34;91458.59;;;1.92
71807;BMP280;59655;42.590;23.364;2023-03-14T03:29:00;91460.50;;;1.80
71807;BMP280;59655;42.590;23.364;2023-03-14T03:31:26;91456.69;;;1.92
71807;BMP280;59655;42.590;23.364;2023-03-14T03:33:51;91455.03;;;1.89
71807;BMP280;59655;42.590;23.364;2023-03-14T03:36:24;91454.28;;;1.72
71807;BMP280;59655;42.590;23.364;2023-03-14T03:38:50;91455.16;;;1.35
71807;BMP280;59655;42.590;23.364;2023-03-14T03:41:16;91457.25;;;1.25
71807;BMP280;59655;42.590;23.364;2023-03-14T03:43:41;91452.84;;;1.59
71807;BMP280;59655;42.590;23.364;2023-03-14T03:46:07;91454.91;;;1.38
71807;BMP280;59655;42.590;23.364;2023-03-14T03:48:33;91455.53;;;1.11
71807;BMP280;59655;42.590;23.364;2023-03-14T03:50:58;91452.53;;;1.35
71807;BMP280;59655;42.590;23.364;2023-03-14T03:53:24;91454.13;;;1.15
71807;BMP280;59655;42.590;23.364;2023-03-14T03:55:49;91458.19;;;1.16
71807;BMP280;59655;42.590;23.364;2023-03-14T03:58:15;91456.34;;;1.28
71807;BMP280;59655;42.590;23.364;2023-03-14T04:00:40;91463.47;;;1.45
71807;BMP280;59655;42.590;23.364;2023-03-14T04:03:06;91471.09;;;1.31
71807;BMP280;59655;42.590;23.364;2023-03-14T04:05:32;91463.28;;;1.54
71807;BMP280;59655;42.590;23.364;2023-03-14T04:07:57;91465.22;;;1.65
71807;BMP280;59655;42.590;23.364;2023-03-14T04:10:23;91462.38;;;1.68
71807;BMP280;59655;42.590;23.364;2023-03-14T04:12:48;91467.38;;;1.72
71807;BMP280;59655;42.590;23.364;2023-03-14T04:15:13;91463.84;;;1.81
71807;BMP280;59655;42.590;23.364;2023-03-14T04:17:39;91458.59;;;1.81
71807;BMP280;59655;42.590;23.364;2023-03-14T04:20:05;91453.38;;;1.81
71807;BMP280;59655;42.590;23.364;2023-03-14T04:22:30;91448.84;;;1.64
71807;BMP280;59655;42.590;23.364;2023-03-14T04:24:56;91448.50;;;1.39
71807;BMP280;59655;42.590;23.364;2023-03-14T04:27:21;91438.09;;;1.62
71807;BMP280;59655;42.590;23.364;2023-03-14T04:29:46;91442.16;;;1.63
71807;BMP280;59655;42.590;23.364;2023-03-14T04:32:12;91440.44;;;1.37
71807;BMP280;59655;42.590;23.364;2023-03-14T04:34:37;91443.47;;;1.19
71807;BMP280;59655;42.590;23.364;2023-03-14T04:37:03;91422.41;;;1.45
71807;BMP280;59655;42.590;23.364;2023-03-14T04:39:28;91417.91;;;1.57
71807;BMP280;59655;42.590;23.364;2023-03-14T04:41:54;91420.06;;;1.58
71807;BMP280;59655;42.590;23.364;2023-03-14T04:44:19;91422.16;;;1.54
71807;BMP280;59655;42.590;23.364;2023-03-14T04:46:44;91415.53;;;1.53
71807;BMP280;59655;42.590;23.364;2023-03-14T04:49:10;91412.91;;;1.48
71807;BMP280;59655;42.590;23.364;2023-03-14T04:51:35;91414.81;;;1.47
71807;BMP280;59655;42.590;23.364;2023-03-14T04:54:01;91413.59;;;1.31
71807;BMP280;59655;42.590;23.364;2023-03-14T04:56:26;91407.88;;;1.38
71807;BMP280;59655;42.590;23.364;2023-03-14T04:58:53;91408.84;;;1.30
71807;BMP280;59655;42.590;23.364;2023-03-14T05:01:18;91401.50;;;1.45
71807;BMP280;59655;42.590;23.364;2023-03-14T05:03:44;91395.09;;;1.57
71807;BMP280;59655;42.590;23.364;2023-03-14T05:06:09;91399.66;;;1.68
71807;BMP280;59655;42.590;23.364;2023-03-14T05:08:34;91398.44;;;1.75
71807;BMP280;59655;42.590;23.364;2023-03-14T05:11:00;91393.91;;;1.70
71807;BMP280;59655;42.590;23.364;2023-03-14T05:13:25;91401.53;;;1.79
71807;BMP280;59655;42.590;23.364;2023-03-14T05:15:51;91401.06;;;1.75
71807;BMP280;59655;42.590;23.364;2023-03-14T05:18:17;91400.13;;;1.78
71807;BMP280;59655;42.590;23.364;2023-03-14T05:20:43;91401.06;;;1.81
71807;BMP280;59655;42.590;23.364;2023-03-14T05:23:09;91404.16;;;1.85
71807;BMP280;59655;42.590;23.364;2023-03-14T05:25:35;91395.13;;;1.91
71807;BMP280;59655;42.590;23.364;2023-03-14T05:28:00;91401.78;;;1.92
71807;BMP280;59655;42.590;23.364;2023-03-14T05:30:26;91402.97;;;1.97
71807;BMP280;59655;42.590;23.364;2023-03-14T05:32:53;91399.63;;;2.08
71807;BMP280;59655;42.590;23.364;2023-03-14T05:35:18;91406.31;;;2.09
71807;BMP280;59655;42.590;23.364;2023-03-14T05:37:43;91397.03;;;2.08
71807;BMP280;59655;42.590;23.364;2023-03-14T05:40:09;91401.31;;;2.11
71807;BMP280;59655;42.590;23.364;2023-03-14T05:42:35;91396.78;;;2.23
71807;BMP280;59655;42.590;23.364;2023-03-14T05:45:00;91387.50;;;2.16
71807;BMP280;59655;42.590;23.364;2023-03-14T05:47:26;91392.75;;;2.22
71807;BMP280;59655;42.590;23.364;2023-03-14T05:49:51;91397.25;;;2.21
71807;BMP280;59655;42.590;23.364;2023-03-14T05:52:16;91391.09;;;2.24
71807;BMP280;59655;42.590;23.364;2023-03-14T05:54:42;91399.16;;;2.32
71807;BMP280;59655;42.590;23.364;2023-03-14T05:57:07;91393.41;;;2.39
71807;BMP280;59655;42.590;23.364;2023-03-14T05:59:33;91392.94;;;2.41
71807;BMP280;59655;42.590;23.364;2023-03-14T06:01:58;91391.03;;;2.41
71807;BMP280;59655;42.590;23.364;2023-03-14T06:04:24;91401.25;;;2.45
71807;BMP280;59655;42.590;23.364;2023-03-14T06:06:50;91395.78;;;2.48
71807;BMP280;59655;42.590;23.364;2023-03-14T06:09:15;91392.94;;;2.52
71807;BMP280;59655;42.590;23.364;2023-03-14T06:11:41;91396.72;;;2.56
71807;BMP280;59655;42.590;23.364;2023-03-14T06:14:06;91402.91;;;2.59
71807;BMP280;59655;42.590;23.364;2023-03-14T06:16:32;91403.63;;;2.59
71807;BMP280;59655;42.590;23.364;2023-03-14T06:18:57;91397.44;;;2.63
71807;BMP280;59655;42.590;23.364;2023-03-14T06:21:23;91393.16;;;2.65
71807;BMP280;59655;42.590;23.364;2023-03-14T06:23:48;91400.72;;;2.69
71807;BMP280;59655;42.590;23.364;2023-03-14T06:26:13;91392.88;;;2.74
71807;BMP280;59655;42.590;23.364;2023-03-14T06:28:39;91391.88;;;2.77
71807;BMP280;59655;42.590;23.364;2023-03-14T06:31:05;91400.97;;;2.76
71807;BMP280;59655;42.590;23.364;2023-03-14T06:33:30;91404.28;;;2.83
71807;BMP280;59655;42.590;23.364;2023-03-14T06:35:56;91403.78;;;2.84
71807;BMP280;59655;42.590;23.364;2023-03-14T06:38:21;91407.59;;;2.89
71807;BMP280;59655;42.590;23.364;2023-03-14T06:40:46;91409.72;;;2.90
71807;BMP280;59655;42.590;23.364;2023-03-14T06:43:12;91401.16;;;2.90
71807;BMP280;59655;42.590;23.364;2023-03-14T06:45:38;91407.81;;;2.96
71807;BMP280;59655;42.590;23.364;2023-03-14T06:48:03;91404.44;;;3.02
71807;BMP280;59655;42.590;23.364;2023-03-14T06:50:29;91400.34;;;3.06
71807;BMP280;59655;42.590;23.364;2023-03-14T06:52:54;91392.03;;;3.08
71807;BMP280;59655;42.590;23.364;2023-03-14T06:55:20;91395.34;;;3.08
71807;BMP280;59655;42.590;23.364;2023-03-14T06:57:46;91393.19;;;3.12
71807;BMP280;59655;42.590;23.364;2023-03-14T07:00:12;91382.22;;;3.14
71807;BMP280;59655;42.590;23.364;2023-03-14T07:02:38;91387.22;;;3.17
71807;BMP280;59655;42.590;23.364;2023-03-14T07:05:04;91385.53;;;3.20
71807;BMP280;59655;42.590;23.364;2023-03-14T07:07:30;91389.13;;;3.23
71807;BMP280;59655;42.590;23.364;2023-03-14T07:09:55;91384.53;;;3.29
71807;BMP280;59655;42.590;23.364;2023-03-14T07:12:21;91382.38;;;3.27
71807;BMP280;59655;42.590;23.364;2023-03-14T07:14:46;91378.06;;;3.30
71807;BMP280;59655;42.590;23.364;2023-03-14T07:17:11;91372.81;;;3.35
71807;BMP280;59655;42.590;23.364;2023-03-14T07:19:37;91371.84;;;3.38
71807;BMP280;59655;42.590;23.364;2023-03-14T07:22:04;91367.06;;;3.43
71807;BMP280;59655;42.590;23.364;2023-03-14T07:24:29;91366.56;;;3.44
71807;BMP280;59655;42.590;23.364;2023-03-14T07:26:55;91368.00;;;3.45
71807;BMP280;59655;42.590;23.364;2023-03-14T07:29:20;91363.94;;;3.50
71807;BMP280;59655;42.590;23.364;2023-03-14T07:31:46;91369.13;;;3.55
71807;BMP280;59655;42.590;23.364;2023-03-14T07:34:11;91370.53;;;3.56
71807;BMP280;59655;42.590;23.364;2023-03-14T07:36:36;91365.03;;;3.60
71807;BMP280;59655;42.590;23.364;2023-03-14T07:39:02;91369.53;;;3.65
71807;BMP280;59655;42.590;23.364;2023-03-14T07:41:29;91363.31;;;3.68
71807;BMP280;59655;42.590;23.364;2023-03-14T07:43:54;91362.59;;;3.68
71807;BMP280;59655;42.590;23.364;2023-03-14T07:46:20;91356.38;;;3.71
71807;BMP280;59655;42.590;23.364;2023-03-14T07:48:45;91354.69;;;3.73
71807;BMP280;59655;42.590;23.364;2023-03-14T07:51:10;91357.53;;;3.75
71807;BMP280;59655;42.590;23.364;2023-03-14T07:53:36;91353.19;;;3.78
71807;BMP280;59655;42.590;23.364;2023-03-14T07:56:01;91353.63;;;3.82
71807;BMP280;59655;42.590;23.364;2023-03-14T07:58:27;91352.47;;;3.83
71807;BMP280;59655;42.590;23.364;2023-03-14T08:00:52;91359.84;;;3.85
71807;BMP280;59655;42.590;23.364;2023-03-14T08:03:18;91353.81;;;3.90
71807;BMP280;59655;42.590;23.364;2023-03-14T08:05:46;91353.34;;;3.91
71807;BMP280;59655;42.590;23.364;2023-03-14T08:08:12;91359.03;;;3.95
71807;BMP280;59655;42.590;23.364;2023-03-14T08:10:37;91364.03;;;3.99
71807;BMP280;59655;42.590;23.364;2023-03-14T08:13:02;91357.28;;;4.04
71807;BMP280;59655;42.590;23.364;2023-03-14T08:15:29;91360.81;;;4.12
71807;BMP280;59655;42.590;23.364;2023-03-14T08:17:55;91353.91;;;4.09
71807;BMP280;59655;42.590;23.364;2023-03-14T08:20:23;91359.81;;;4.15
71807;BMP280;59655;42.590;23.364;2023-03-14T08:22:49;91364.31;;;4.20
71807;BMP280;59655;42.590;23.364;2023-03-14T08:25:15;91357.06;;;4.26
71807;BMP280;59655;42.590;23.364;2023-03-14T08:27:42;91364.47;;;4.28
71807;BMP280;59655;42.590;23.364;2023-03-14T08:30:10;91361.13;;;4.27
71807;BMP280;59655;42.590;23.364;2023-03-14T08:32:36;91363.72;;;4.33
71807;BMP280;59655;42.590;23.364;2023-03-14T08:35:02;91357.72;;;4.32
71807;BMP280;59655;42.590;23.364;2023-03-14T08:37:27;91359.88;;;4.34
71807;BMP280;59655;42.590;23.364;2023-03-14T08:39:53;91356.72;;;4.41
71807;BMP280;59655;42.590;23.364;2023-03-14T08:42:19;91342.81;;;4.46
71807;BMP280;59655;42.590;23.364;2023-03-14T08:44:44;91346.56;;;4.51
71807;BMP280;59655;42.590;23.364;2023-03-14T08:47:10;91348.00;;;4.52
71807;BMP280;59655;42.590;23.364;2023-03-14T08:49:35;91348.22;;;4.54
71807;BMP280;59655;42.590;23.364;2023-03-14T08:52:02;91343.09;;;4.61
71807;BMP280;59655;42.590;23.364;2023-03-14T08:54:28;91338.63;;;4.56
71807;BMP280;59655;42.590;23.364;2023-03-14T08:56:54;91335.03;;;4.59
71807;BMP280;59655;42.590;23.364;2023-03-14T08:59:19;91333.88;;;4.55
71807;BMP280;59655;42.590;23.364;2023-03-14T09:01:44;91334.72;;;4.63
71807;BMP280;59655;42.590;23.364;2023-03-14T09:04:10;91332.47;;;4.73
71807;BMP280;59655;42.590;23.364;2023-03-14T09:06:35;91343.63;;;4.79
71807;BMP280;59655;42.590;23.364;2023-03-14T09:09:01;91320.97;;;4.76
71807;BMP280;59655;42.590;23.364;2023-03-14T09:11:27;91318.47;;;4.83
71807;BMP280;59655;42.590;23.364;2023-03-14T09:13:52;91318.13;;;4.93
71807;BMP280;59655;42.590;23.364;2023-03-14T09:16:17;91307.25;;;5.02
71807;BMP280;59655;42.590;23.364;2023-03-14T09:18:43;91313.00;;;5.33
71807;BMP280;59655;42.590;23.364;2023-03-14T09:21:08;91300.97;;;5.24
71807;BMP280;59655;42.590;23.364;2023-03-14T09:23:34;91303.88;;;5.20
71807;BMP280;59655;42.590;23.364;2023-03-14T09:26:00;91290.31;;;5.16
71807;BMP280;59655;42.590;23.364;2023-03-14T09:28:26;91286.09;;;5.27
71807;BMP280;59655;42.590;23.364;2023-03-14T09:30:52;91276.91;;;5.33
71807;BMP280;59655;42.590;23.364;2023-03-14T09:33:18;91273.06;;;5.34
71807;BMP280;59655;42.590;23.364;2023-03-14T09:35:43;91271.69;;;5.47
71807;BMP280;59655;42.590;23.364;2023-03-14T09:38:09;91273.00;;;5.53
71807;BMP280;59655;42.590;23.364;2023-03-14T09:40:35;91268.88;;;5.58
71807;BMP280;59655;42.590;23.364;2023-03-14T09:43:02;91266.34;;;5.52
71807;BMP280;59655;42.590;23.364;2023-03-14T09:45:31;91264.63;;;5.55
71807;BMP280;59655;42.590;23.364;2023-03-14T09:47:58;91263.38;;;5.56
71807;BMP280;59655;42.590;23.364;2023-03-14T09:50:25;91252.69;;;5.67
71807;BMP280;59655;42.590;23.364;2023-03-14T09:53:03;91250.47;;;5.71
71807;BMP280;59655;42.590;23.364;2023-03-14T09:55:31;91242.56;;;5.84
71807;BMP280;59655;42.590;23.364;2023-03-14T09:58:00;91240.03;;;5.92
71807;BMP280;59655;42.590;23.364;2023-03-14T10:00:29;91240.56;;;5.91
71807;BMP280;59655;42.590;23.364;2023-03-14T10:05:41;91237.00;;;6.15
71807;BMP280;59655;42.590;23.364;2023-03-14T10:08:10;91230.00;;;6.17
71807;BMP280;59655;42.590;23.364;2023-03-14T10:10:36;91222.38;;;6.27
71807;BMP280;59655;42.590;23.364;2023-03-14T10:13:17;91222.75;;;6.44
71807;BMP280;59655;42.590;23.364;2023-03-14T10:15:54;91219.91;;;6.42
71807;BMP280;59655;42.590;23.364;2023-03-14T10:18:20;91222.94;;;6.46
71807;BMP280;59655;42.590;23.364;2023-03-14T10:20:48;91214.72;;;6.50
71807;BMP280;59655;42.590;23.364;2023-03-14T10:25:44;91205.34;;;6.76
71807;BMP280;59655;42.590;23.364;2023-03-14T10:28:42;91200.94;;;6.78
71807;BMP280;59655;42.590;23.364;2023-03-14T10:31:08;91193.88;;;6.73
71807;BMP280;59655;42.590;23.364;2023-03-14T10:33:36;91190.22;;;6.76
71807;BMP280;59655;42.590;23.364;2023-03-14T10:38:39;91178.13;;;7.02
71807;BMP280;59655;42.590;23.364;2023-03-14T10:41:22;91164.41;;;7.03
71807;BMP280;59655;42.590;23.364;2023-03-14T10:43:53;91166.91;;;7.09
71807;BMP280;59655;42.590;23.364;2023-03-14T10:46:23;91168.50;;;7.12
71807;BMP280;59655;42.590;23.364;2023-03-14T10:48:49;91153.72;;;7.09
71807;BMP280;59655;42.590;23.364;2023-03-14T10:51:22;91149.06;;;7.23
71807;BMP280;59655;42.590;23.364;2023-03-14T10:54:02;91149.34;;;7.40
71807;BMP280;59655;42.590;23.364;2023-03-14T10:56:34;91141.19;;;7.59
71807;BMP280;59655;42.590;23.364;2023-03-14T10:59:00;91133.91;;;7.52
71807;BMP280;59655;42.590;23.364;2023-03-14T11:14:59;91100.03;;;7.71
71807;BMP280;59655;42.590;23.364;2023-03-14T11:23:32;91087.38;;;7.78
71807;BMP280;59655;42.590;23.364;2023-03-14T11:26:14;91076.16;;;7.85
71807;BMP280;59655;42.590;23.364;2023-03-14T11:28:50;91075.81;;;7.96
71807;BMP280;59655;42.590;23.364;2023-03-14T11:31:29;91065.97;;;7.96
71807;BMP280;59655;42.590;23.364;2023-03-14T11:34:01;91064.38;;;7.93
71807;BMP280;59655;42.590;23.364;2023-03-14T11:36:41;91056.66;;;8.11
71807;BMP280;59655;42.590;23.364;2023-03-14T11:39:18;91056.31;;;8.22
71807;BMP280;59655;42.590;23.364;2023-03-14T11:41:55;91056.50;;;8.24
71807;BMP280;59655;42.590;23.364;2023-03-14T11:44:26;91051.03;;;8.14
71807;BMP280;59655;42.590;23.364;2023-03-14T11:47:19;91059.66;;;8.15
71807;BMP280;59655;42.590;23.364;2023-03-14T11:52:34;91036.06;;;8.32
71807;BMP280;59655;42.590;23.364;2023-03-14T11:55:17;91036.22;;;8.42
71807;BMP280;59655;42.590;23.364;2023-03-14T11:57:45;91020.38;;;8.50
71807;BMP280;59655;42.590;23.364;2023-03-14T12:00:23;91024.06;;;8.54
71807;BMP280;59655;42.590;23.364;2023-03-14T12:10:55;91010.25;;;8.87
71807;BMP280;59655;42.590;23.364;2023-03-14T12:13:22;90998.94;;;8.94
71807;BMP280;59655;42.590;23.364;2023-03-14T12:15:57;90999.59;;;9.50
71807;BMP280;59655;42.590;23.364;2023-03-14T12:20:56;90988.97;;;9.25
71807;BMP280;59655;42.590;23.364;2023-03-14T12:23:23;90979.06;;;9.26
71807;BMP280;59655;42.590;23.364;2023-03-14T12:26:07;90978.84;;;9.39
71807;BMP280;59655;42.590;23.364;2023-03-14T12:28:33;90976.31;;;9.49
71807;BMP280;59655;42.590;23.364;2023-03-14T12:39:43;90960.81;;;9.70
71807;BMP280;59655;42.590;23.364;2023-03-14T12:42:16;90958.50;;;9.74
71807;BMP280;59655;42.590;23.364;2023-03-14T12:44:48;90956.94;;;9.96
71807;BMP280;59655;42.590;23.364;2023-03-14T12:49:42;90959.88;;;10.25
71807;BMP280;59655;42.590;23.364;2023-03-14T12:52:15;90964.75;;;10.37
71807;BMP280;59655;42.590;23.364;2023-03-14T12:54:50;90949.28;;;10.43
71807;BMP280;59655;42.590;23.364;2023-03-14T13:00:17;90946.69;;;10.87
71807;BMP280;59655;42.590;23.364;2023-03-14T13:02:44;90938.91;;;11.16
71807;BMP280;59655;42.590;23.364;2023-03-14T13:05:23;90932.44;;;11.64
71807;BMP280;59655;42.590;23.364;2023-03-14T13:10:24;90925.56;;;12.85
71807;BMP280;59655;42.590;23.364;2023-03-14T13:15:22;90918.34;;;13.79
71807;BMP280;59655;42.590;23.364;2023-03-14T13:17:50;90914.63;;;14.37
71807;BMP280;59655;42.590;23.364;2023-03-14T13:20:35;90915.13;;;14.90
71807;BMP280;59655;42.590;23.364;2023-03-14T13:23:02;90906.25;;;15.21
71807;BMP280;59655;42.590;23.364;2023-03-14T13:25:35;90903.03;;;15.58
71807;BMP280;59655;42.590;23.364;2023-03-14T13:28:02;90897.63;;;15.81
71807;BMP280;59655;42.590;23.364;2023-03-14T13:30:38;90892.31;;;16.19
71807;BMP280;59655;42.590;23.364;2023-03-14T13:33:05;90878.41;;;16.34
71807;BMP280;59655;42.590;23.364;2023-03-14T13:35:40;90877.44;;;16.41
71807;BMP280;59655;42.590;23.364;2023-03-14T13:38:16;90874.69;;;16.53
71807;BMP280;59655;42.590;23.364;2023-03-14T13:40:43;90865.84;;;16.76
71807;BMP280;59655;42.590;23.364;2023-03-14T13:43:42;90862.09;;;16.95
71807;BMP280;59655;42.590;23.364;2023-03-14T13:46:16;90852.50;;;17.04
71807;BMP280;59655;42.590;23.364;2023-03-14T13:48:45;90843.34;;;16.95
71807;BMP280;59655;42.590;23.364;2023-03-14T13:51:13;90842.16;;;17.12
71807;BMP280;59655;42.590;23.364;2023-03-14T13:53:57;90848.22;;;17.26
71807;BMP280;59655;42.590;23.364;2023-03-14T13:56:27;90838.59;;;17.21
71807;BMP280;59655;42.590;23.364;2023-03-14T13:58:54;90842.28;;;17.14
71807;BMP280;59655;42.590;23.364;2023-03-14T14:01:31;90833.50;;;16.99
71807;BMP280;59655;42.590;23.364;2023-03-14T14:04:01;90829.97;;;16.69
71807;BMP280;59655;42.590;23.364;2023-03-14T14:08:58;90802.72;;;16.33
71807;BMP280;59655;42.590;23.364;2023-03-14T14:14:21;90801.22;;;16.05
71807;BMP280;59655;42.590;23.364;2023-03-14T14:16:50;90795.00;;;15.88
71807;BMP280;59655;42.590;23.364;2023-03-14T14:19:18;90787.13;;;15.79
71807;BMP280;59655;42.590;23.364;2023-03-14T14:21:44;90778.91;;;15.75
71807;BMP280;59655;42.590;23.364;2023-03-14T14:24:12;90774.94;;;15.76
71807;BMP280;59655;42.590;23.364;2023-03-14T14:26:51;90761.78;;;15.80
71807;BMP280;59655;42.590;23.364;2023-03-14T14:29:26;90770.63;;;15.71
71807;BMP280;59655;42.590;23.364;2023-03-14T14:32:24;90765.25;;;15.57
71807;BMP280;59655;42.590;23.364;2023-03-14T14:37:46;90759.19;;;15.56
71807;BMP280;59655;42.590;23.364;2023-03-14T14:40:19;90757.38;;;15.47
71807;BMP280;59655;42.590;23.364;2023-03-14T14:42:46;90765.97;;;15.46
71807;BMP280;59655;42.590;23.364;2023-03-14T14:45:33;90754.56;;;15.45
71807;BMP280;59655;42.590;23.364;2023-03-14T14:48:04;90752.41;;;15.30
71807;BMP280;59655;42.590;23.364;2023-03-14T14:50:38;90754.41;;;15.17
71807;BMP280;59655;42.590;23.364;2023-03-14T14:55:45;90748.25;;;14.80
71807;BMP280;59655;42.590;23.364;2023-03-14T15:00:40;90735.81;;;14.72
71807;BMP280;59655;42.590;23.364;2023-03-14T15:03:12;90733.28;;;14.63
71807;BMP280;59655;42.590;23.364;2023-03-14T15:05:39;90731.31;;;14.51
71807;BMP280;59655;42.590;23.364;2023-03-14T15:08:10;90725.75;;;14.47
71807;BMP280;59655;42.590;23.364;2023-03-14T15:10:36;90730.47;;;14.37
71807;BMP280;59655;42.590;23.364;2023-03-14T15:13:02;90724.41;;;14.25
71807;BMP280;59655;42.590;23.364;2023-03-14T15:15:27;90723.69;;;14.13
71807;BMP280;59655;42.590;23.364;2023-03-14T15:17:53;90720.56;;;14.04
71807;BMP280;59655;42.590;23.364;2023-03-14T15:20:18;90713.34;;;13.95
71807;BMP280;59655;42.590;23.364;2023-03-14T15:22:45;90710.50;;;13.81
71807;BMP280;59655;42.590;23.364;2023-03-14T15:25:11;90708.16;;;13.64
71807;BMP280;59655;42.590;23.364;2023-03-14T15:27:38;90706.59;;;13.61
71807;BMP280;59655;42.590;23.364;2023-03-14T15:30:11;90698.19;;;13.43
71807;BMP280;59655;42.590;23.364;2023-03-14T15:32:36;90701.75;;;13.36